Latest Weather Observations for Batchelor

IDD60901

Issued at 11:41 am CST Tuesday 23 December 2014 (issued every 10 minutes, with the page automatically refreshed every 10 minutes)

About weather observations | Map of Darwin area stations | Latest observations for Darwin area | Other Formats
Station Details ID: 014272 Name: BATCHELOR AIRPORT Lat: -13.05 Lon: 131.03 Height: 104.0 m
Data from the previous 72 hours. | See also: Recent months at Batchelor
Date/Time
CST
Tmp

°C
App
Tmp
°C
Dew
Point
°C
Rel
Hum
%
Delta-T

°C
Wind Press
QNH
hPa
Press
MSL
hPa
Rain
since
9 am
mm
Dir
 
Spd
km/h
Gust
km/h
Spd
kts
Gust
kts
23/11:30am 32.3 36.1 22.4 56 6.8 NNE 6 11 3 6 1009.6 1008.9 0.0
23/11:00am 32.6 37.4 23.5 58 6.3 NW 4 9 2 5 1010.0 1009.3 0.0
23/10:30am 30.9 35.0 23.3 64 5.3 ENE 7 9 4 5 1010.0 1009.3 0.0
23/10:00am 30.7 34.7 22.8 62 5.4 ESE 6 11 3 6 1010.1 1009.4 0.0
23/09:30am 30.3 34.1 23.5 67 4.7 E 9 17 5 9 1010.3 1009.6 0.0
23/09:00am 29.7 34.0 23.6 69 4.2 ENE 7 13 4 7 1010.3 1009.6 0.0
23/08:30am 28.7 32.5 23.4 73 3.7 E 9 13 5 7 1010.3 1009.6 0.0
23/08:00am 27.9 31.7 23.5 77 3.0 E 9 13 5 7 1010.0 1009.3 0.0
23/07:30am 26.8 30.9 23.9 84 2.0 E 9 13 5 7 1009.6 1008.9 0.0
23/07:00am 25.9 30.7 24.1 90 1.2 ESE 6 9 3 5 1009.4 1008.7 0.0
23/06:30am 25.2 30.2 23.8 92 1.0 SSW 4 6 2 3 1009.2 1008.5 0.0
23/06:00am 25.3 31.0 23.7 91 1.1 CALM 0 0 0 0 1008.7 1008.0 0.0
23/05:30am 25.5 30.4 23.7 90 1.2 SSW 4 6 2 3 1008.6 1007.8 0.0
23/05:00am 25.4 30.6 23.6 90 1.2 SSW 2 4 1 2 1008.2 1007.4 0.0
23/04:30am 25.6 31.0 23.8 90 1.2 SSW 2 4 1 2 1008.2 1007.4 0.0
23/04:00am 25.6 30.9 23.7 89 1.3 SSW 2 4 1 2 1008.1 1007.3 0.0
23/03:30am 25.8 31.0 23.5 87 1.6 SSW 2 4 1 2 1008.1 1007.3 0.0
23/03:00am 25.9 31.0 23.4 86 1.7 SSW 2 4 1 2 1008.1 1007.3 0.0
23/02:30am 26.2 31.5 23.7 86 1.7 SSW 2 2 1 1 1008.3 1007.5 0.0
23/02:00am 26.2 31.5 23.7 86 1.7 W 2 4 1 2 1008.2 1007.4 0.0
23/01:30am 26.1 31.7 23.6 86 1.7 CALM 0 4 0 2 1008.2 1007.4 0.0
23/01:00am 26.2 31.2 23.9 87 1.6 W 4 4 2 2 1008.3 1007.5 0.0
23/12:30am 26.6 32.8 24.6 89 1.4 CALM 0 0 0 0 1008.6 1007.8 0.0
23/12:00am 26.4 31.9 24.1 87 1.6 W 2 2 1 1 1008.7 1008.0 0.0
 
Date/Time
CST
Tmp

°C
App
Tmp
°C
Dew
Point
°C
Rel
Hum
%
Delta-T

°C
Wind Press
QNH
hPa
Press
MSL
hPa
Rain
since
9 am
mm
Dir
 
Spd
km/h
Gust
km/h
Spd
kts
Gust
kts
22/11:30pm 26.6 32.4 23.9 85 1.9 CALM 0 0 0 0 1008.8 1008.1 0.0
22/11:00pm 27.0 33.1 24.5 86 1.7 CALM 0 0 0 0 1008.6 1007.8 0.0
22/10:30pm 27.1 32.7 23.6 81 2.4 CALM 0 0 0 0 1008.4 1007.6 0.0
22/10:00pm 27.5 32.9 23.9 81 2.5 W 2 4 1 2 1008.3 1007.5 0.0
22/09:30pm 27.7 32.4 23.3 77 3.0 W 4 4 2 2 1008.2 1007.4 0.0
22/09:00pm 28.0 33.8 24.0 79 2.8 CALM 0 0 0 0 1008.0 1007.2 0.0
22/08:30pm 28.4 34.2 24.0 77 3.1 CALM 0 0 0 0 1007.8 1007.0 0.0
22/08:00pm 28.7 33.8 23.4 73 3.7 W 2 6 1 3 1007.5 1006.7 0.0
22/07:30pm 29.1 33.3 23.1 70 4.1 WSW 6 9 3 5 1006.9 1006.1 0.0
22/07:00pm 29.8 33.4 23.0 67 4.7 W 9 15 5 8 1006.4 1005.6 0.0
22/06:30pm 31.1 35.3 23.5 64 5.3 WNW 7 13 4 7 1006.1 1005.3 0.0
22/06:00pm 31.4 34.0 22.7 60 6.0 NW 13 19 7 10 1005.9 1005.1 0.0
22/05:30pm 32.7 36.2 23.6 58 6.4 NW 11 19 6 10 1005.4 1004.6 0.0
22/05:00pm 33.0 36.5 23.6 57 6.6 NW 11 24 6 13 1005.1 1004.3 0.0
22/04:30pm 34.3 37.0 20.7 45 9.2 NNW 7 13 4 7 1005.2 1004.4 0.0
22/04:00pm 34.0 36.9 21.8 49 8.3 N 9 17 5 9 1005.6 1004.8 0.0
22/03:30pm 33.7 36.8 21.5 49 8.3 NNW 7 17 4 9 1006.2 1005.4 0.0
22/03:00pm 34.4 37.5 21.4 46 8.9 N 7 15 4 8 1006.5 1005.7 0.0
22/02:30pm 34.3 38.2 23.0 51 7.9 N 7 13 4 7 1006.9 1006.1 0.0
22/02:00pm 33.7 37.5 22.8 53 7.5 NNE 7 15 4 8 1007.3 1006.5 0.0
22/01:30pm 32.6 36.4 22.7 56 6.8 NE 7 13 4 7 1007.9 1007.1 0.0
22/01:00pm 33.2 37.4 23.2 55 6.9 NW 6 11 3 6 1008.2 1007.4 0.0
22/12:30pm 32.4 36.3 23.6 59 6.1 NE 9 15 5 8 1008.5 1007.7 0.0
22/12:00pm 32.6 36.9 23.3 58 6.5 WNW 6 11 3 6 1008.9 1008.2 0.0
22/11:30am 31.5 35.8 23.3 61 5.7 N 6 9 3 5 1009.3 1008.6 0.0
22/11:00am 31.3 35.3 23.1 61 5.7 NNE 7 15 4 8 1009.4 1008.7 0.0
22/10:30am 30.1 34.3 23.5 67 4.6 ENE 7 15 4 8 1009.5 1008.8 0.0
22/10:00am 29.3 33.4 24.0 73 3.7 ENE 9 15 5 8 1009.8 1009.1 0.0
22/09:30am 27.9 31.5 23.1 75 3.3 ENE 9 13 5 7 1010.0 1009.3 0.0
22/09:00am 27.5 31.3 22.7 75 3.3 ENE 7 9 4 5 1010.0 1009.3 0.0
22/08:30am 27.0 31.1 23.0 79 2.7 ENE 6 11 3 6 1009.9 1009.2 0.0
22/08:00am 26.4 30.7 23.7 85 1.9 ESE 7 9 4 5 1009.1 1008.4 0.0
22/07:30am 25.8 30.2 23.5 87 1.6 ENE 6 6 3 3 1008.7 1008.0 0.0
22/07:00am 25.5 30.0 23.0 86 1.7 ENE 4 7 2 4 1008.4 1007.6 0.0
22/06:30am 25.6 29.0 22.7 84 2.0 ENE 9 13 5 7 1008.2 1007.4 0.0
22/06:00am 25.9 28.8 22.4 81 2.4 ESE 11 17 6 9 1008.5 1007.7 0.0
22/05:30am 26.5 28.3 22.6 79 2.6 SE 17 26 9 14 1007.9 1007.1 0.0
22/05:00am 27.2 32.8 24.8 87 1.7 SSE 4 6 2 3 1007.9 1007.1 0.0
22/04:30am 27.3 32.8 24.7 86 1.8 S 4 7 2 4 1007.4 1006.6 0.0
22/04:00am 27.3 32.6 24.9 87 1.7 S 6 9 3 5 1007.3 1006.5 0.0
22/03:30am 27.1 33.5 24.9 88 1.5 CALM 0 0 0 0 1007.5 1006.7 0.0
22/03:00am 27.1 33.5 24.9 88 1.5 CALM 0 0 0 0 1007.5 1006.7 0.0
22/02:30am 26.9 33.2 24.7 88 1.5 CALM 0 0 0 0 1007.4 1006.6 0.0
22/02:00am 27.1 33.3 24.6 86 1.7 CALM 0 0 0 0 1007.5 1006.7 0.0
22/01:30am 27.1 33.2 24.4 85 1.9 CALM 0 0 0 0 1007.7 1006.9 0.0
22/01:00am 27.4 32.8 24.5 84 2.0 SW 4 6 2 3 1007.8 1007.0 0.0
22/12:30am 27.6 33.2 24.2 82 2.4 SW 2 2 1 1 1008.2 1007.4 0.0
22/12:00am 27.7 33.1 23.9 80 2.6 SW 2 4 1 2 1008.3 1007.5 0.0
 
Date/Time
CST
Tmp

°C
App
Tmp
°C
Dew
Point
°C
Rel
Hum
%
Delta-T

°C
Wind Press
QNH
hPa
Press
MSL
hPa
Rain
since
9 am
mm
Dir
 
Spd
km/h
Gust
km/h
Spd
kts
Gust
kts
21/11:30pm 28.0 33.1 24.0 79 2.8 SW 4 6 2 3 1008.5 1007.7 0.0
21/11:00pm 28.3 33.4 24.1 78 2.9 SW 4 6 2 3 1008.3 1007.5 0.0
21/10:30pm 28.4 33.5 24.0 77 3.1 WSW 4 6 2 3 1008.2 1007.4 0.0
21/10:00pm 28.7 34.1 24.5 78 2.9 WSW 4 4 2 2 1008.2 1007.4 0.0
21/09:30pm 29.1 34.0 24.4 76 3.3 WSW 6 7 3 4 1008.0 1007.2 0.0
21/09:00pm 29.1 34.4 24.4 76 3.3 WSW 4 7 2 4 1007.3 1006.5 0.0
21/08:30pm 29.2 35.3 24.5 76 3.3 CALM 0 2 0 1 1006.9 1006.1 0.0
21/08:00pm 29.4 35.4 24.3 74 3.6 CALM 0 0 0 0 1006.9 1006.1 0.0
21/07:30pm 30.6 36.0 23.8 67 4.7 N 2 2 1 1 1006.5 1005.7 0.0
21/07:00pm 31.4 35.9 23.0 61 5.8 N 4 6 2 3 1005.6 1004.8 0.0
21/06:30pm 32.2 36.1 22.6 57 6.6 NNE 6 6 3 3 1005.2 1004.4 0.0
21/06:00pm 33.5 36.9 21.6 49 8.1 N 6 9 3 5 1004.9 1004.1 0.0
21/05:30pm 33.5 36.9 21.6 49 8.1 N 6 9 3 5 1004.9 1004.1 0.0
21/05:00pm 33.8 36.8 21.2 47 8.5 NW 7 13 4 7 1005.0 1004.2 0.0
21/04:30pm 34.1 37.3 21.2 47 8.8 NW 6 11 3 6 1005.1 1004.3 0.0
21/04:00pm 34.2 38.5 22.6 50 8.0 W 4 9 2 5 1005.3 1004.5 0.0
21/03:30pm 33.4 37.5 22.2 52 7.7 N 4 7 2 4 1005.6 1004.8 0.0
21/03:00pm 32.4 36.5 21.6 53 7.3 NE 2 7 1 4 1006.3 1005.5 0.0
21/02:30pm 33.3 37.3 22.1 52 7.7 S 4 7 2 4 1006.8 1006.0 0.0
21/02:00pm 32.5 37.0 22.9 57 6.6 N 4 7 2 4 1007.3 1006.5 0.0
21/01:30pm 32.4 36.5 22.2 55 7.0 N 4 9 2 5 1008.1 1007.3 0.0
21/01:00pm 31.8 35.9 22.2 56 6.6 WNW 4 7 2 4 1008.4 1007.6 0.0
21/12:30pm 30.9 34.7 21.7 58 6.2 NNE 4 7 2 4 1008.8 1008.1 0.0
21/12:00pm 30.9 34.5 23.0 62 5.4 E 9 13 5 7 1009.3 1008.6 0.0
21/11:30am 30.3 34.0 22.2 62 5.5 ENE 6 9 3 5 1009.7 1009.0 0.0
21/11:00am 29.8 33.3 22.8 66 4.8 E 9 13 5 7 1010.1 1009.4 0.0
21/10:30am 28.6 31.9 21.9 67 4.5 ENE 7 11 4 6 1010.5 1009.8 0.0
21/10:00am 26.6 30.8 22.4 78 2.8 ENE 4 6 2 3 1010.5 1009.8 0.0
21/09:30am 25.8 29.8 22.1 80 2.5 E 4 6 2 3 1010.3 1009.6 0.0
21/09:00am 25.3 29.9 22.4 84 2.0 E 2 4 1 2 1010.2 1009.5 2.2
21/08:30am 25.2 29.1 21.9 82 2.2 NNE 4 6 2 3 1010.0 1009.3 2.2
21/08:00am 25.5 29.1 23.0 86 1.7 ENE 9 15 5 8 1010.0 1009.3 2.2
21/07:30am 25.9 28.2 23.4 86 1.7 ESE 17 26 9 14 1010.2 1009.5 2.2
21/07:00am 26.6 30.0 24.1 86 1.7 SE 13 19 7 10 1009.4 1008.7 0.2
21/06:30am 26.5 31.9 23.8 85 1.9 W 2 4 1 2 1008.5 1007.7 0.2
21/06:00am 26.4 32.4 24.8 91 1.1 W 2 4 1 2 1008.1 1007.3 0.2
21/05:30am 26.5 32.9 24.9 91 1.1 CALM 0 0 0 0 1008.0 1007.2 0.2
21/05:00am 26.7 33.1 24.9 90 1.3 CALM 0 0 0 0 1007.7 1006.9 0.2
21/04:30am 26.8 33.0 24.6 88 1.5 CALM 0 0 0 0 1007.3 1006.5 0.2
21/04:00am 26.7 33.0 24.7 89 1.4 CALM 0 0 0 0 1007.1 1006.3 0.2
21/03:30am 26.8 32.6 24.6 88 1.5 W 2 4 1 2 1007.0 1006.2 0.2
21/03:00am 26.8 32.9 25.0 90 1.3 WSW 2 4 1 2 1007.0 1006.2 0.2
21/02:30am 26.9 33.3 24.9 89 1.4 CALM 0 2 0 1 1007.4 1006.6 0.2
21/02:00am 27.0 32.8 24.6 87 1.7 WSW 2 4 1 2 1007.5 1006.7 0.2
21/01:30am 27.2 33.5 24.8 87 1.7 CALM 0 0 0 0 1007.9 1007.1 0.2
21/01:00am 27.5 33.9 24.9 86 1.8 CALM 0 2 0 1 1008.4 1007.6 0.2
21/12:30am 27.7 34.2 25.1 86 1.8 CALM 0 0 0 0 1008.7 1008.0 0.2
21/12:00am 27.9 34.3 24.9 84 2.1 CALM 0 4 0 2 1009.0 1008.3 0.2
 
Date/Time
CST
Tmp

°C
App
Tmp
°C
Dew
Point
°C
Rel
Hum
%
Delta-T

°C
Wind Press
QNH
hPa
Press
MSL
hPa
Rain
since
9 am
mm
Dir
 
Spd
km/h
Gust
km/h
Spd
kts
Gust
kts
20/11:30pm 28.1 34.1 24.9 83 2.2 WSW 2 6 1 3 1009.0 1008.3 0.2
20/11:00pm 28.4 33.9 24.6 80 2.7 WSW 4 6 2 3 1009.1 1008.4 0.2
20/10:30pm 28.7 33.4 24.0 76 3.3 WSW 6 6 3 3 1008.8 1008.1 0.2
20/10:00pm 29.1 33.7 24.2 75 3.4 W 7 13 4 7 1008.7 1008.0 0.2
20/09:30pm 29.5 33.5 23.7 71 4.0 W 9 15 5 8 1008.3 1007.5 0.2
20/09:00pm 30.6 34.4 22.7 62 5.4 WNW 7 13 4 7 1007.9 1007.1 0.2
20/08:30pm 30.8 35.6 23.5 65 5.1 NW 4 6 2 3 1007.2 1006.4 0.2
20/08:00pm 30.9 35.7 23.5 64 5.1 NNW 4 6 2 3 1006.9 1006.1 0.2
20/07:30pm 31.6 37.4 24.0 64 5.3 CALM 0 0 0 0 1006.7 1005.9 0.2
20/07:00pm 33.0 38.1 22.7 54 7.1 CALM 0 0 0 0 1005.6 1004.8 0.2
20/06:30pm 34.4 37.7 21.4 46 8.9 E 6 7 3 4 1005.3 1004.5 0.2
20/06:00pm 34.9 38.1 20.5 43 9.7 ESE 4 7 2 4 1005.3 1004.5 0.2
20/05:30pm 34.7 38.5 21.7 46 8.9 NE 4 7 2 4 1004.9 1004.1 0.2
20/05:00pm 35.5 39.5 22.1 45 9.2 WSW 4 6 2 3 1004.8 1004.0 0.2
20/04:30pm 34.5 37.8 21.5 46 8.9 ENE 6 7 3 4 1004.8 1004.0 0.2
20/04:00pm 34.7 38.1 21.7 46 8.9 NE 6 9 3 5 1005.1 1004.3 0.2
20/03:30pm 34.2 37.9 22.3 50 8.2 ESE 6 11 3 6 1005.6 1004.8 0.2
20/03:00pm 34.5 39.3 24.1 54 7.3 ESE 6 7 3 4 1006.2 1005.4 0.2
20/02:30pm 34.0 38.0 22.7 51 7.8 ESE 6 13 3 7 1006.6 1005.8 0.2
20/02:00pm 33.5 37.7 23.5 55 7.0 NE 7 11 4 6 1007.1 1006.3 0.2
20/01:30pm 33.0 37.0 22.7 54 7.1 ENE 6 11 3 6 1007.5 1006.7 0.2
20/01:00pm 32.6 37.0 23.8 59 6.1 ESE 7 11 4 6 1008.2 1007.4 0.2
20/12:30pm 31.7 36.2 24.0 63 5.4 E 7 11 4 6 1008.8 1008.1 0.2
20/12:00pm 31.8 36.6 24.1 63 5.4 ENE 6 13 3 7 1009.3 1008.6 0.2

Latest Capital City Observations: Canberra | Sydney | Melbourne | Brisbane | Adelaide | Perth | Hobart | Darwin

Other Formats:

Comma delimited format used in spreadsheet applications
http://www.bom.gov.au/fwo/IDD60901/IDD60901.94125.axf

JavaScript Object Notation format (JSON) in row-major order
http://www.bom.gov.au/fwo/IDD60901/IDD60901.94125.json